WXM80 ListenWXM80 Stop

You find our weather info also at:

UK Metoffice

WeatherCloud

Weather Underground

Northeastern Weather Network

AWEKAS

Citizen Weather Observer Program (CWOP)

HAMweather, WeatherForYou, PWS Weather


Weather Underground History page Text

Daily Summary for April 17, 2017 Units:  Metric    English   Both
« Previous Day
Next Day »
Daily Weekly Monthly Yearly Custom
  High: Low: Average:
Temperature: 23.4 °C 14.1 °C 18.9 °C
Dew Point: 15.4 °C 1.5 °C 9.1 °C
Humidity: 86 % 28 % 56 %
Wind Speed: 14 km/h 0.3 km/h 6.4 km/h
Wind Gust: 25.9 km/h - -
Wind:- - West
Pressure: 1019.5 hPa 1008.7 hPa -
Precipitation: 0 mm    
Historical Graphs
 
 
Tabular Data for April 17, 2017
Time Temperature Dew Point Pressure Wind Wind Speed Wind Gust Humidity Rainfall Rate (Hourly)
00:03 19.2 °C 14.6 °C 1009 hPa SW 4.5 km/h 8 km/h 75 % 0 mm
00:08 19.2 °C 14.6 °C 1009 hPa WSW 1 km/h 1.9 km/h 75 % 0 mm
00:13 19.2 °C 14.6 °C 1009 hPa WSW 5.1 km/h 12.9 km/h 75 % 0 mm
00:19 19.2 °C 14.7 °C 1009 hPa WSW 3.5 km/h 8 km/h 75 % 0 mm
00:24 19.2 °C 14.7 °C 1008.7 hPa SSW 4.2 km/h 11.1 km/h 75 % 0 mm
00:29 19.2 °C 14.5 °C 1009 hPa SW 4 km/h 6.4 km/h 74 % 0 mm
00:34 19.3 °C 14.5 °C 1009 hPa WSW 7.1 km/h 11.1 km/h 74 % 0 mm
00:39 19.3 °C 14.3 °C 1009 hPa West 4.3 km/h 9.7 km/h 73 % 0 mm
00:44 19.3 °C 14.3 °C 1009 hPa SW 5.8 km/h 8 km/h 73 % 0 mm
00:49 19.3 °C 14.1 °C 1009 hPa West 8.4 km/h 9.3 km/h 72 % 0 mm
00:54 19.3 °C 14.1 °C 1009 hPa WSW 8.5 km/h 13 km/h 72 % 0 mm
00:59 19.2 °C 14.1 °C 1009 hPa WSW 8 km/h 12.9 km/h 72 % 0 mm
01:04 19.2 °C 14 °C 1009 hPa WSW 3.9 km/h 9.3 km/h 72 % 0 mm
01:09 19.2 °C 14 °C 1009 hPa SW 7.1 km/h 18.5 km/h 72 % 0 mm
01:14 19.2 °C 14 °C 1009 hPa West 3.5 km/h 16.7 km/h 72 % 0 mm
01:19 19.2 °C 14.3 °C 1009 hPa SW 7.7 km/h 14.8 km/h 73 % 0 mm
01:24 19.2 °C 14.3 °C 1009 hPa WSW 6.3 km/h 13 km/h 73 % 0 mm
01:29 19.3 °C 14.3 °C 1009 hPa WSW 6.9 km/h 13 km/h 73 % 0 mm
01:34 19.3 °C 14.1 °C 1009 hPa SW 6 km/h 9.3 km/h 72 % 0 mm
01:39 19.2 °C 14.3 °C 1009 hPa WSW 5.1 km/h 16.1 km/h 73 % 0 mm
01:44 19.2 °C 14.3 °C 1009 hPa SW 7.6 km/h 16.1 km/h 73 % 0 mm
01:49 19.2 °C 14.2 °C 1009 hPa SW 6.4 km/h 13 km/h 73 % 0 mm
01:54 19.1 °C 14.4 °C 1009 hPa West 4.8 km/h 16.1 km/h 74 % 0 mm
02:00 19.1 °C 14.3 °C 1009 hPa West 4.7 km/h 8 km/h 74 % 0 mm
02:05 19 °C 14.4 °C 1009 hPa West 5.3 km/h 11.1 km/h 75 % 0 mm
02:10 18.9 °C 14.4 °C 1009 hPa WSW 2.3 km/h 9.7 km/h 75 % 0 mm
02:15 18.9 °C 14.4 °C 1009 hPa SW 7.6 km/h 14.8 km/h 75 % 0 mm
02:20 18.9 °C 14.6 °C 1009 hPa WSW 9 km/h 11.1 km/h 76 % 0 mm
02:25 18.8 °C 14.5 °C 1009 hPa WSW 6.1 km/h 11.1 km/h 76 % 0 mm
02:30 18.8 °C 14.7 °C 1009 hPa SW 3.9 km/h 8 km/h 77 % 0 mm
02:35 18.8 °C 14.7 °C 1009 hPa WSW 7.6 km/h 9.7 km/h 77 % 0 mm
02:37 18.8 °C 14.7 °C 1009 hPa WSW 10.6 km/h 14.8 km/h 77 % 0 mm
02:42 18.8 °C 14.7 °C 1009 hPa SW 4.3 km/h 7.4 km/h 77 % 0 mm
02:47 18.7 °C 14.6 °C 1009 hPa WSW 4 km/h 11.1 km/h 77 % 0 mm
02:52 18.7 °C 14.8 °C 1008.7 hPa WSW 3.7 km/h 7.4 km/h 78 % 0 mm
02:57 18.7 °C 14.8 °C 1009 hPa SSW 5.3 km/h 11.1 km/h 78 % 0 mm
03:03 18.7 °C 14.8 °C 1009 hPa WSW 4 km/h 7.4 km/h 78 % 0 mm
03:04 18.6 °C 14.7 °C 1009 hPa SW 8.2 km/h 14.8 km/h 78 % 0 mm
03:09 18.6 °C 14.7 °C 1009 hPa West 4.5 km/h 8 km/h 78 % 0 mm
03:15 18.6 °C 14.8 °C 1009 hPa WSW 2.9 km/h 9.7 km/h 79 % 0 mm
03:20 18.5 °C 14.8 °C 1009 hPa West 5 km/h 6.4 km/h 79 % 0 mm
03:25 18.4 °C 14.7 °C 1009 hPa WSW 4.7 km/h 9.3 km/h 79 % 0 mm
03:30 18.4 °C 14.7 °C 1008.7 hPa WSW 6.4 km/h 11.1 km/h 79 % 0 mm
03:35 18.3 °C 14.8 °C 1009 hPa WSW 2.3 km/h 5.6 km/h 80 % 0 mm
03:40 18.3 °C 14.8 °C 1008.7 hPa SW 3.4 km/h 9.3 km/h 80 % 0 mm
03:45 18.3 °C 15 °C 1009 hPa WSW 3.9 km/h 14.8 km/h 81 % 0 mm
03:50 18.3 °C 14.9 °C 1009 hPa WSW 1.9 km/h 5.6 km/h 81 % 0 mm
03:55 18.2 °C 14.9 °C 1009 hPa SW 7.6 km/h 16.7 km/h 81 % 0 mm
04:00 18.2 °C 15.1 °C 1009 hPa WSW 5.3 km/h 11.1 km/h 82 % 0 mm
04:05 18.2 °C 15.1 °C 1009 hPa SW 5.6 km/h 11.1 km/h 82 % 0 mm
04:10 18.2 °C 15.1 °C 1009 hPa West 5.6 km/h 11.3 km/h 82 % 0 mm
04:15 18.2 °C 15.1 °C 1009 hPa SW 5.1 km/h 13 km/h 82 % 0 mm
04:20 18.2 °C 15.1 °C 1009 hPa WSW 7.1 km/h 13 km/h 82 % 0 mm
04:25 18.2 °C 15.1 °C 1009 hPa WSW 5.5 km/h 9.7 km/h 82 % 0 mm
04:30 18.2 °C 15.1 °C 1009 hPa WSW 7.1 km/h 11.1 km/h 82 % 0 mm
04:35 18.2 °C 15.1 °C 1009 hPa SW 5 km/h 9.7 km/h 82 % 0 mm
04:40 18.1 °C 15 °C 1009 hPa SW 3.4 km/h 5.6 km/h 82 % 0 mm
04:45 18.1 °C 15 °C 1009 hPa SW 4.7 km/h 6.4 km/h 82 % 0 mm
04:50 18 °C 14.9 °C 1009 hPa WSW 7.1 km/h 13 km/h 82 % 0 mm
04:55 17.9 °C 14.8 °C 1009 hPa SW 6 km/h 11.1 km/h 82 % 0 mm
05:00 17.8 °C 14.9 °C 1009 hPa SW 6.1 km/h 11.1 km/h 83 % 0 mm
05:05 17.8 °C 14.9 °C 1009.4 hPa SW 3.5 km/h 8 km/h 83 % 0 mm
05:11 17.8 °C 14.8 °C 1009 hPa WSW 4.5 km/h 7.4 km/h 83 % 0 mm
05:16 17.8 °C 14.8 °C 1009 hPa SW 5.6 km/h 5.6 km/h 83 % 0 mm
05:21 17.7 °C 15 °C 1009.4 hPa WSW 2.9 km/h 5.6 km/h 84 % 0 mm
05:26 17.7 °C 15 °C 1009.4 hPa WSW 5 km/h 11.3 km/h 84 % 0 mm
05:31 17.7 °C 15 °C 1009.4 hPa SW 5.3 km/h 5.6 km/h 84 % 0 mm
05:32 17.7 °C 15 °C 1009.4 hPa SW 7.1 km/h 9.7 km/h 84 % 0 mm
05:37 17.7 °C 14.9 °C 1009.4 hPa WSW 5.6 km/h 13 km/h 84 % 0 mm
05:42 17.7 °C 14.9 °C 1009.4 hPa WSW 3.1 km/h 13 km/h 84 % 0 mm
05:47 17.7 °C 14.9 °C 1009.4 hPa SW 6 km/h 11.1 km/h 84 % 0 mm
05:52 17.7 °C 14.9 °C 1009.7 hPa WSW 5.5 km/h 8 km/h 84 % 0 mm
05:57 17.7 °C 14.9 °C 1009.7 hPa WSW 5.3 km/h 11.1 km/h 84 % 0 mm
06:02 17.6 °C 14.9 °C 1010 hPa WSW 6.1 km/h 9.3 km/h 84 % 0 mm
06:07 17.6 °C 14.8 °C 1010 hPa WSW 7.4 km/h 13 km/h 84 % 0 mm
06:12 17.6 °C 14.8 °C 1010 hPa SSW 5.1 km/h 9.3 km/h 84 % 0 mm
06:18 17.5 °C 14.8 °C 1010 hPa SW 7.6 km/h 13 km/h 84 % 0 mm
06:23 17.5 °C 14.8 °C 1010.4 hPa WSW 3.9 km/h 14.8 km/h 84 % 0 mm
06:28 17.4 °C 14.7 °C 1010.4 hPa SW 5.5 km/h 11.3 km/h 84 % 0 mm
06:33 17.4 °C 14.8 °C 1010.4 hPa WSW 6.3 km/h 11.1 km/h 85 % 0 mm
06:38 17.3 °C 14.8 °C 1010.7 hPa SW 5.6 km/h 13 km/h 85 % 0 mm
06:43 17.3 °C 14.7 °C 1010.7 hPa SW 5.1 km/h 7.4 km/h 85 % 0 mm
06:48 17.3 °C 14.7 °C 1010.7 hPa WSW 5.3 km/h 11.1 km/h 85 % 0 mm
06:53 17.3 °C 14.7 °C 1010.7 hPa WSW 5 km/h 9.7 km/h 85 % 0 mm
06:58 17.3 °C 14.9 °C 1011.1 hPa SW 6 km/h 11.3 km/h 86 % 0 mm
07:03 17.3 °C 14.8 °C 1011.1 hPa SW 4.5 km/h 7.4 km/h 85 % 0 mm
07:08 17.4 °C 15.1 °C 1011.1 hPa WSW 3.5 km/h 7.4 km/h 86 % 0 mm
07:13 17.6 °C 15 °C 1011.1 hPa WSW 3.9 km/h 7.4 km/h 85 % 0 mm
07:18 17.7 °C 15.1 °C 1011.4 hPa West 12.6 km/h 16.7 km/h 85 % 0 mm
07:23 17.8 °C 15.1 °C 1011.4 hPa WSW 4.5 km/h 7.4 km/h 84 % 0 mm
07:28 18 °C 15.3 °C 1011.4 hPa West 3.7 km/h 8 km/h 84 % 0 mm
07:33 18.2 °C 15.2 °C 1011.4 hPa West 7.1 km/h 11.1 km/h 83 % 0 mm
07:39 18.3 °C 15.2 °C 1011.4 hPa West 1.3 km/h 3.7 km/h 82 % 0 mm
07:44 18.6 °C 15.2 °C 1011.4 hPa West 6.1 km/h 9.3 km/h 81 % 0 mm
07:49 18.7 °C 15 °C 1011.7 hPa West 8.7 km/h 18.5 km/h 79 % 0 mm
07:54 18.9 °C 15.2 °C 1011.4 hPa WNW 4.5 km/h 18.5 km/h 79 % 0 mm
07:59 19.1 °C 15.1 °C 1011.4 hPa SSW 4.5 km/h 14.8 km/h 78 % 0 mm
08:04 19.2 °C 15.1 °C 1011.4 hPa West 5.3 km/h 11.1 km/h 77 % 0 mm
08:09 19.3 °C 15.2 °C 1011.4 hPa NW 7.1 km/h 11.1 km/h 77 % 0 mm
08:14 19.5 °C 15.2 °C 1011.7 hPa WNW 2.9 km/h 5.6 km/h 76 % 0 mm
08:19 19.7 °C 15.2 °C 1011.4 hPa WNW 9 km/h 9 km/h 75 % 0 mm
08:24 19.9 °C 15.4 °C 1011.7 hPa West 5.5 km/h 9.7 km/h 75 % 0 mm
08:29 20.2 °C 15.2 °C 1011.4 hPa NW 5.3 km/h 8 km/h 73 % 0 mm
08:34 20.3 °C 15.1 °C 1011.4 hPa WNW 4.5 km/h 6.4 km/h 72 % 0 mm
08:39 20.4 °C 14.9 °C 1011.4 hPa WNW 3.1 km/h 4.8 km/h 71 % 0 mm
08:44 20.4 °C 14.9 °C 1011.4 hPa WSW 2.7 km/h 7.4 km/h 71 % 0 mm
08:49 20.4 °C 14.7 °C 1011.7 hPa WNW 5.6 km/h 9.3 km/h 70 % 0 mm
08:54 20.3 °C 14.6 °C 1011.7 hPa West 4.8 km/h 9.7 km/h 70 % 0 mm
08:59 20.2 °C 14.5 °C 1011.7 hPa WNW 4.2 km/h 8 km/h 70 % 0 mm
09:04 20.1 °C 14.4 °C 1011.7 hPa WNW 4.3 km/h 9.7 km/h 70 % 0 mm
09:09 20.1 °C 14.4 °C 1011.7 hPa WNW 2.4 km/h 5.6 km/h 70 % 0 mm
09:14 20.2 °C 14.1 °C 1011.7 hPa WSW 6.3 km/h 9.7 km/h 68 % 0 mm
09:19 20.2 °C 13.9 °C 1012.1 hPa WSW 3.5 km/h 9.3 km/h 67 % 0 mm
09:24 20.3 °C 13.7 °C 1011.7 hPa SW 4.3 km/h 9.3 km/h 66 % 0 mm
09:29 20.3 °C 13.5 °C 1011.7 hPa WNW 5 km/h 11.1 km/h 65 % 0 mm
09:34 20.3 °C 13.2 °C 1011.7 hPa WNW 3.7 km/h 6.4 km/h 64 % 0 mm
09:39 20.3 °C 13.1 °C 1011.7 hPa WNW 6.6 km/h 13 km/h 63 % 0 mm
09:44 20.4 °C 13.3 °C 1012.1 hPa West 2.9 km/h 5.6 km/h 64 % 0 mm
09:49 20.4 °C 12.9 °C 1012.1 hPa WNW 5.5 km/h 11.1 km/h 62 % 0 mm
09:54 20.4 °C 12.6 °C 1012.1 hPa WNW 2.3 km/h 9.3 km/h 61 % 0 mm
09:59 20.3 °C 12.8 °C 1012.1 hPa WNW 6.3 km/h 9.3 km/h 62 % 0 mm
10:04 20.3 °C 12.5 °C 1012.4 hPa WNW 7.6 km/h 18.5 km/h 61 % 0 mm
10:09 20.2 °C 12.2 °C 1012.1 hPa WNW 3.7 km/h 9.3 km/h 60 % 0 mm
10:14 19.9 °C 11.9 °C 1012.1 hPa WSW 5.8 km/h 13 km/h 60 % 0 mm
10:19 19.8 °C 11.6 °C 1012.1 hPa NW 2.9 km/h 11.1 km/h 59 % 0 mm
10:24 19.8 °C 11.6 °C 1012.4 hPa West 3.1 km/h 8 km/h 59 % 0 mm
10:29 19.7 °C 11.2 °C 1012.4 hPa WSW 7.2 km/h 13 km/h 58 % 0 mm
10:34 19.7 °C 11.2 °C 1012.4 hPa SW 7.4 km/h 13 km/h 58 % 0 mm
10:39 19.6 °C 11.3 °C 1012.4 hPa SW 6.3 km/h 9.3 km/h 59 % 0 mm
10:43 19.6 °C 11.1 °C 1012.4 hPa West 4.7 km/h 11.1 km/h 58 % 0 mm
10:48 19.6 °C 11.1 °C 1012.4 hPa WNW 5 km/h 11.1 km/h 58 % 0 mm
10:53 19.7 °C 11.2 °C 1012.4 hPa WNW 6.9 km/h 18.5 km/h 58 % 0 mm
10:58 19.7 °C 11.2 °C 1012.4 hPa WNW 7.7 km/h 16.1 km/h 58 % 0 mm
11:03 19.8 °C 11 °C 1012.8 hPa NW 10.3 km/h 13 km/h 57 % 0 mm
11:08 19.8 °C 10.7 °C 1012.8 hPa WSW 5.1 km/h 16.7 km/h 56 % 0 mm
11:13 19.8 °C 10.5 °C 1012.8 hPa WSW 4.2 km/h 9.3 km/h 55 % 0 mm
11:18 19.8 °C 10.5 °C 1012.8 hPa West 6.9 km/h 11.1 km/h 55 % 0 mm
11:23 19.9 °C 10.3 °C 1012.8 hPa West 8.4 km/h 12.9 km/h 54 % 0 mm
11:28 20 °C 10.1 °C 1012.8 hPa WSW 8.7 km/h 11.3 km/h 53 % 0 mm
11:33 20.1 °C 9.9 °C 1013.1 hPa West 10.6 km/h 18.5 km/h 52 % 0 mm
11:38 20.1 °C 9.9 °C 1013.1 hPa WSW 7.2 km/h 14.8 km/h 52 % 0 mm
11:43 20.2 °C 9.7 °C 1013.1 hPa WSW 9.7 km/h 14.8 km/h 51 % 0 mm
11:48 20.3 °C 9.8 °C 1012.8 hPa WSW 4.2 km/h 11.1 km/h 51 % 0 mm
11:53 20.6 °C 9.4 °C 1012.8 hPa West 6.3 km/h 11.1 km/h 49 % 0 mm
11:58 20.7 °C 10.2 °C 1012.8 hPa West 4.8 km/h 7.4 km/h 51 % 0 mm
12:03 21 °C 9.6 °C 1012.8 hPa WNW 4.5 km/h 7.4 km/h 48 % 0 mm
12:08 21.3 °C 9.2 °C 1012.8 hPa WSW 3.5 km/h 5.6 km/h 46 % 0 mm
12:13 21.8 °C 9 °C 1012.8 hPa NW 5.8 km/h 18.5 km/h 44 % 0 mm
12:18 22.3 °C 8.4 °C 1012.8 hPa WNW 10 km/h 10 km/h 41 % 0 mm
12:23 22.7 °C 8.1 °C 1012.8 hPa NW 8.7 km/h 18.5 km/h 39 % 0 mm
12:28 23.1 °C 7.9 °C 1012.8 hPa WNW 10.6 km/h 14.8 km/h 38 % 0 mm
12:33 23.3 °C 7.8 °C 1012.8 hPa WNW 10.9 km/h 18.5 km/h 37 % 0 mm
12:38 23.4 °C 9 °C 1012.8 hPa NW 7.9 km/h 18.5 km/h 40 % 0 mm
12:43 23.4 °C 7.4 °C 1012.4 hPa West 6.6 km/h 13 km/h 36 % 0 mm
12:48 23.3 °C 7.8 °C 1012.8 hPa WNW 8.7 km/h 20.4 km/h 37 % 0 mm
12:53 23.1 °C 7.6 °C 1012.4 hPa WSW 7.1 km/h 14.8 km/h 37 % 0 mm
12:58 22.7 °C 7.7 °C 1012.8 hPa NW 8.4 km/h 13 km/h 38 % 0 mm
13:03 22.5 °C 7.4 °C 1012.8 hPa WNW 6.9 km/h 11.1 km/h 38 % 0 mm
13:08 22.1 °C 7.5 °C 1012.8 hPa West 7.9 km/h 16.1 km/h 39 % 0 mm
13:13 21.8 °C 7.2 °C 1012.4 hPa West 9.5 km/h 16.7 km/h 39 % 0 mm
13:18 21.6 °C 7.4 °C 1012.4 hPa West 7.9 km/h 13 km/h 40 % 0 mm
13:23 21.3 °C 7.2 °C 1012.4 hPa SW 9.8 km/h 16.1 km/h 40 % 0 mm
13:28 21.3 °C 7.5 °C 1012.4 hPa SW 5.3 km/h 13 km/h 41 % 0 mm
13:34 21.3 °C 7.1 °C 1012.4 hPa West 8.2 km/h 20.4 km/h 40 % 0 mm
13:39 21.3 °C 7.8 °C 1012.4 hPa WSW 7.6 km/h 16.1 km/h 42 % 0 mm
13:44 21.3 °C 7.5 °C 1012.4 hPa SW 8.4 km/h 12.9 km/h 41 % 0 mm
13:49 21.3 °C 7.5 °C 1012.4 hPa West 9.3 km/h 16.7 km/h 41 % 0 mm
13:54 21.3 °C 7.5 °C 1012.1 hPa West 12.2 km/h 14.8 km/h 41 % 0 mm
13:59 21.2 °C 6.7 °C 1012.1 hPa West 12.1 km/h 20.4 km/h 39 % 0 mm
14:04 21.2 °C 7 °C 1012.4 hPa WSW 9 km/h 14.8 km/h 40 % 0 mm
14:09 21.2 °C 7.4 °C 1012.4 hPa WSW 7.6 km/h 7.6 km/h 41 % 0 mm
14:14 21.3 °C 6.8 °C 1012.1 hPa WSW 8.7 km/h 18.5 km/h 39 % 0 mm
14:19 21.2 °C 7.1 °C 1012.1 hPa WSW 5.8 km/h 14.8 km/h 40 % 0 mm
14:24 21.2 °C 6.7 °C 1012.1 hPa WSW 10.9 km/h 18.5 km/h 39 % 0 mm
14:29 21.3 °C 6.4 °C 1012.4 hPa NW 8 km/h 16.7 km/h 38 % 0 mm
14:34 21.2 °C 6.3 °C 1012.1 hPa NW 6.6 km/h 22.2 km/h 38 % 0 mm
14:39 21.2 °C 5.9 °C 1012.1 hPa West 6.9 km/h 14.8 km/h 37 % 0 mm
14:44 21.2 °C 5.9 °C 1012.1 hPa West 4.2 km/h 18.5 km/h 37 % 0 mm
14:49 21.3 °C 5.2 °C 1012.1 hPa West 6.3 km/h 20.4 km/h 35 % 0 mm
14:54 21.4 °C 5.7 °C 1012.1 hPa WNW 7.6 km/h 20.9 km/h 36 % 0 mm
14:59 21.5 °C 5.4 °C 1012.1 hPa West 8.5 km/h 16.7 km/h 35 % 0 mm
15:04 21.7 °C 5.6 °C 1012.4 hPa WNW 5 km/h 11.3 km/h 35 % 0 mm
15:09 21.7 °C 4.7 °C 1012.4 hPa WNW 8 km/h 18.5 km/h 33 % 0 mm
15:14 21.6 °C 4.6 °C 1012.4 hPa WNW 6.4 km/h 13 km/h 33 % 0 mm
15:19 21.5 °C 3.7 °C 1012.4 hPa NW 12.9 km/h 18.5 km/h 31 % 0 mm
15:24 21.3 °C 3.9 °C 1012.4 hPa NW 7.2 km/h 20.4 km/h 32 % 0 mm
15:29 21.2 °C 2.9 °C 1012.4 hPa NW 7.6 km/h 16.7 km/h 30 % 0 mm
15:34 21.2 °C 2.4 °C 1012.4 hPa WNW 10.1 km/h 18.5 km/h 29 % 0 mm
15:40 21.3 °C 2.1 °C 1012.4 hPa West 10.9 km/h 22.5 km/h 28 % 0 mm
15:45 21.6 °C 2.8 °C 1012.4 hPa WNW 9.2 km/h 20.4 km/h 29 % 0 mm
15:50 21.8 °C 2.4 °C 1012.8 hPa NNW 10 km/h 25.9 km/h 28 % 0 mm
15:55 22.1 °C 3.2 °C 1012.8 hPa WNW 10.8 km/h 14.5 km/h 29 % 0 mm
16:00 22.2 °C 2.8 °C 1012.8 hPa West 11.4 km/h 16.7 km/h 28 % 0 mm
16:05 22.4 °C 4.9 °C 1012.8 hPa WNW 8.5 km/h 18.5 km/h 32 % 0 mm
16:10 22.4 °C 3.5 °C 1012.8 hPa NW 9.8 km/h 16.1 km/h 29 % 0 mm
16:15 22.3 °C 3.4 °C 1012.8 hPa NW 10.8 km/h 18.5 km/h 29 % 0 mm
16:20 22.2 °C 3.8 °C 1012.8 hPa NNW 7.2 km/h 16.7 km/h 30 % 0 mm
16:25 21.9 °C 4.9 °C 1012.8 hPa WNW 3.2 km/h 8 km/h 33 % 0 mm
16:30 21.9 °C 4 °C 1012.8 hPa WNW 4.2 km/h 14.8 km/h 31 % 0 mm
16:35 21.8 °C 4.4 °C 1012.8 hPa WNW 8 km/h 14.8 km/h 32 % 0 mm
16:40 21.8 °C 3.4 °C 1012.8 hPa WNW 8.2 km/h 18.5 km/h 30 % 0 mm
16:45 21.7 °C 4.3 °C 1013.1 hPa West 4.2 km/h 9.3 km/h 32 % 0 mm
16:50 21.8 °C 3.4 °C 1013.1 hPa WSW 10 km/h 14.8 km/h 30 % 0 mm
16:55 21.8 °C 3.4 °C 1013.1 hPa WSW 1.9 km/h 9.3 km/h 30 % 0 mm
17:00 21.8 °C 3.4 °C 1013.1 hPa WSW 6.3 km/h 9.7 km/h 30 % 0 mm
17:05 21.7 °C 3.4 °C 1013.1 hPa West 4.8 km/h 14.8 km/h 30 % 0 mm
17:10 21.6 °C 3.7 °C 1013.1 hPa NW 8 km/h 14.8 km/h 31 % 0 mm
17:15 21.5 °C 4.1 °C 1013.1 hPa NW 2.9 km/h 7.4 km/h 32 % 0 mm
17:20 21.2 °C 3.8 °C 1013.4 hPa WNW 8.2 km/h 14.8 km/h 32 % 0 mm
17:26 21 °C 4.1 °C 1013.4 hPa West 5.3 km/h 7.4 km/h 33 % 0 mm
17:31 20.9 °C 4.1 °C 1013.4 hPa NW 7.9 km/h 13 km/h 33 % 0 mm
17:36 20.9 °C 4.4 °C 1013.4 hPa West 7.1 km/h 14.8 km/h 34 % 0 mm
17:41 20.9 °C 4.4 °C 1013.4 hPa NNW 3.2 km/h 11.1 km/h 34 % 0 mm
17:46 20.9 °C 4.4 °C 1013.4 hPa NW 8.9 km/h 14.8 km/h 34 % 0 mm
17:51 20.9 °C 4.1 °C 1013.8 hPa NW 6 km/h 7.4 km/h 33 % 0 mm
17:56 20.9 °C 4.1 °C 1013.8 hPa WNW 1.9 km/h 11.1 km/h 33 % 0 mm
18:01 20.9 °C 3.6 °C 1013.8 hPa WNW 4.3 km/h 8 km/h 32 % 0 mm
18:03 20.9 °C 3.6 °C 1013.8 hPa West 6 km/h 7.4 km/h 32 % 0 mm
18:08 20.8 °C 3.4 °C 1013.8 hPa West 4.5 km/h 7.4 km/h 32 % 0 mm
18:14 20.7 °C 3.4 °C 1013.8 hPa WSW 2.7 km/h 11.1 km/h 32 % 0 mm
18:19 20.6 °C 3.3 °C 1013.8 hPa WSW 5 km/h 9.3 km/h 32 % 0 mm
18:24 20.6 °C 3.7 °C 1013.8 hPa WSW 0.3 km/h 1.9 km/h 33 % 0 mm
18:29 20.5 °C 3.7 °C 1013.8 hPa West 1.1 km/h 4.8 km/h 33 % 0 mm
18:34 20.4 °C 3.2 °C 1014.1 hPa WNW 1.4 km/h 3.7 km/h 32 % 0 mm
18:39 20.4 °C 3.6 °C 1014.1 hPa NW 4.5 km/h 9.3 km/h 33 % 0 mm
18:44 20.3 °C 3.9 °C 1014.1 hPa WNW 4.8 km/h 8 km/h 34 % 0 mm
18:49 20.2 °C 3.8 °C 1014.1 hPa NW 6.6 km/h 11.3 km/h 34 % 0 mm
18:54 19.9 °C 3.2 °C 1014.1 hPa West 7.7 km/h 14.8 km/h 33 % 0 mm
18:59 19.6 °C 3.7 °C 1014.4 hPa NW 7.7 km/h 18.5 km/h 35 % 0 mm
19:04 19.2 °C 4.2 °C 1014.8 hPa WNW 9.2 km/h 18.5 km/h 37 % 0 mm
19:09 18.8 °C 3.8 °C 1014.8 hPa NW 9.8 km/h 20.9 km/h 37 % 0 mm
19:14 18.3 °C 3.7 °C 1014.8 hPa NW 11.7 km/h 17.7 km/h 38 % 0 mm
19:19 17.9 °C 3.7 °C 1014.8 hPa NNW 7.1 km/h 18.5 km/h 39 % 0 mm
19:24 17.6 °C 3.8 °C 1015.1 hPa WNW 8.7 km/h 14.8 km/h 40 % 0 mm
19:29 17.3 °C 3.6 °C 1015.1 hPa West 10.6 km/h 14.5 km/h 40 % 0 mm
19:34 17.1 °C 3.4 °C 1015.5 hPa West 9.5 km/h 22.2 km/h 40 % 0 mm
19:39 16.8 °C 3.8 °C 1015.8 hPa WNW 3.2 km/h 11.1 km/h 42 % 0 mm
19:44 16.6 °C 4.2 °C 1015.8 hPa NW 9 km/h 16.7 km/h 44 % 0 mm
19:49 16.3 °C 3.7 °C 1015.8 hPa WNW 8.5 km/h 14.8 km/h 43 % 0 mm
19:54 16.1 °C 3.5 °C 1016.1 hPa NW 8.7 km/h 18.5 km/h 43 % 0 mm
19:59 16 °C 3.1 °C 1016.1 hPa NW 11.9 km/h 19.3 km/h 42 % 0 mm
20:04 16 °C 3.7 °C 1016.1 hPa West 5 km/h 16.7 km/h 44 % 0 mm
20:09 15.9 °C 3.1 °C 1016.5 hPa NW 8.7 km/h 18.5 km/h 42 % 0 mm
20:14 15.9 °C 2.7 °C 1016.5 hPa NW 9.3 km/h 18.5 km/h 41 % 0 mm
20:19 15.9 °C 3.1 °C 1016.5 hPa WNW 8.7 km/h 13 km/h 42 % 0 mm
20:24 15.9 °C 2.3 °C 1016.5 hPa WNW 9.3 km/h 18.5 km/h 40 % 0 mm
20:29 15.9 °C 2 °C 1016.8 hPa WNW 4 km/h 9.3 km/h 39 % 0 mm
20:35 15.9 °C 2.3 °C 1016.8 hPa NNW 7.1 km/h 12.9 km/h 40 % 0 mm
20:40 15.9 °C 2.7 °C 1016.8 hPa WNW 9.3 km/h 18.5 km/h 41 % 0 mm
20:45 15.9 °C 3 °C 1016.8 hPa West 7.1 km/h 14.8 km/h 42 % 0 mm
20:50 15.8 °C 2.6 °C 1017.2 hPa West 7.6 km/h 16.7 km/h 41 % 0 mm
20:55 15.7 °C 2.4 °C 1017.2 hPa NNW 8 km/h 18.5 km/h 41 % 0 mm
21:00 15.6 °C 2.1 °C 1017.5 hPa West 12.1 km/h 18.5 km/h 40 % 0 mm
21:05 15.6 °C 2.3 °C 1017.5 hPa WNW 7.2 km/h 14.5 km/h 41 % 0 mm
21:10 15.5 °C 2.3 °C 1017.5 hPa WNW 6.6 km/h 18.5 km/h 41 % 0 mm
21:15 15.4 °C 2.6 °C 1017.5 hPa NW 3.2 km/h 13 km/h 42 % 0 mm
21:20 15.3 °C 2.8 °C 1017.5 hPa WNW 7.1 km/h 13 km/h 43 % 0 mm
21:25 15.2 °C 2.7 °C 1017.8 hPa NNW 12.9 km/h 24.1 km/h 43 % 0 mm
21:30 15.1 °C 1.9 °C 1017.8 hPa WNW 9.2 km/h 14.8 km/h 41 % 0 mm
21:35 15 °C 2.8 °C 1017.8 hPa NW 5.8 km/h 14.8 km/h 44 % 0 mm
21:40 14.9 °C 3.1 °C 1017.8 hPa NNW 6.3 km/h 11.1 km/h 45 % 0 mm
21:42 14.8 °C 3 °C 1018.2 hPa WNW 4 km/h 7.4 km/h 45 % 0 mm
21:47 14.7 °C 3.2 °C 1018.2 hPa NW 4.2 km/h 14.8 km/h 46 % 0 mm
21:52 14.6 °C 3.1 °C 1018.2 hPa NW 10.3 km/h 18.5 km/h 46 % 0 mm
21:57 14.4 °C 2.9 °C 1018.2 hPa WNW 6.4 km/h 13 km/h 46 % 0 mm
22:02 14.3 °C 2.8 °C 1018.2 hPa WNW 8.5 km/h 13 km/h 46 % 0 mm
22:07 14.3 °C 2.2 °C 1018.2 hPa WNW 14 km/h 16.7 km/h 44 % 0 mm
22:12 14.3 °C 2.8 °C 1018.5 hPa West 6.9 km/h 16.1 km/h 46 % 0 mm
22:17 14.3 °C 2.6 °C 1018.5 hPa NW 9.2 km/h 13 km/h 45 % 0 mm
22:23 14.4 °C 2.9 °C 1018.5 hPa WNW 4.7 km/h 11.3 km/h 46 % 0 mm
22:28 14.3 °C 2.6 °C 1018.5 hPa NW 7.9 km/h 18.5 km/h 45 % 0 mm
22:33 14.4 °C 2.3 °C 1018.5 hPa NW 6.8 km/h 16.7 km/h 44 % 0 mm
22:38 14.4 °C 2.3 °C 1018.5 hPa NW 9.2 km/h 11.3 km/h 44 % 0 mm
22:43 14.4 °C 2.3 °C 1018.8 hPa WNW 7.6 km/h 14.8 km/h 44 % 0 mm
22:48 14.4 °C 2 °C 1018.8 hPa West 7.9 km/h 14.8 km/h 43 % 0 mm
22:53 14.5 °C 2.1 °C 1018.8 hPa NNW 9.7 km/h 12.9 km/h 43 % 0 mm
22:58 14.6 °C 1.5 °C 1018.8 hPa NW 6.9 km/h 18.5 km/h 41 % 0 mm
23:03 14.7 °C 1.6 °C 1018.8 hPa West 8.9 km/h 14.5 km/h 41 % 0 mm
23:08 14.7 °C 1.6 °C 1018.8 hPa NW 6.4 km/h 13 km/h 41 % 0 mm
23:13 14.8 °C 1.7 °C 1019.2 hPa NW 6.4 km/h 16.7 km/h 41 % 0 mm
23:18 14.8 °C 2 °C 1019.2 hPa WNW 5.5 km/h 16.7 km/h 42 % 0 mm
23:23 14.7 °C 1.9 °C 1019.2 hPa WNW 10.3 km/h 16.1 km/h 42 % 0 mm
23:28 14.7 °C 2.2 °C 1019.2 hPa NW 1.4 km/h 14.8 km/h 43 % 0 mm
23:33 14.6 °C 2.1 °C 1019.5 hPa West 4.3 km/h 14.8 km/h 43 % 0 mm
23:39 14.5 °C 2.1 °C 1019.5 hPa WNW 4.3 km/h 9.3 km/h 43 % 0 mm
23:44 14.4 °C 2.3 °C 1019.5 hPa NW 4.2 km/h 11.1 km/h 44 % 0 mm
23:49 14.3 °C 2.5 °C 1019.5 hPa NW 2.1 km/h 5.6 km/h 45 % 0 mm
23:54 14.2 °C 2.8 °C 1019.5 hPa NW 2.6 km/h 7.4 km/h 46 % 0 mm
23:59 14.1 °C 2.9 °C 1019.5 hPa WNW 2.3 km/h 9.3 km/h 47 % 0 mm
Crab Meadow Weather
Compliments of Weather Underground - 3 mb

Script developed by  Jim McMurry - jmcmurry@mwt.net Adapted for the template by  Wim van der Kuil - Leuven-Template.eu

Lightning: At any given moment, there are about 1,800 thunderstorms happening around the world. Approximately 100 lightning bolts strike the earth every second.